sim
Sign-in with your pilot id or email,
or register
Callsign
Passwort

Schedule Details

Flight Number: EWG6828 (1)
Departure: Palma de Mallorca Airport (LEPA) at 13:55
Arrival: Bremen Airport (EDDW) at 16:40
Route: Eurowings Passenger Schedule. Enter filed route here before submitting Pirep.

Weather Information
Getting current METAR information for LEPA 112000Z 06010KT CAVOK 25/18 Q1017 NOSIG
Getting current METAR information for EDDW 112020Z 23001KT 9999 FEW028 13/12 Q1025 NOSIG

Schedule Frequency

Route Map